sensor_id;sensor_type;location;lat;lon;timestamp;P1;durP1;ratioP1;P2;durP2;ratioP2
57225;SDS011;43082;43.568;22.256;2022-09-09T00:02:01;10.38;;;4.65;;
57225;SDS011;43082;43.568;22.256;2022-09-09T00:04:34;8.48;;;4.55;;
57225;SDS011;43082;43.568;22.256;2022-09-09T00:10:07;10.75;;;4.45;;
57225;SDS011;43082;43.568;22.256;2022-09-09T00:21:17;10.27;;;5.07;;
57225;SDS011;43082;43.568;22.256;2022-09-09T00:23:48;9.77;;;4.40;;
57225;SDS011;43082;43.568;22.256;2022-09-09T00:26:19;8.25;;;4.70;;
57225;SDS011;43082;43.568;22.256;2022-09-09T00:28:59;8.73;;;4.85;;
57225;SDS011;43082;43.568;22.256;2022-09-09T00:31:29;7.97;;;5.00;;
57225;SDS011;43082;43.568;22.256;2022-09-09T00:34:00;7.60;;;4.55;;
57225;SDS011;43082;43.568;22.256;2022-09-09T00:36:30;10.18;;;4.32;;
57225;SDS011;43082;43.568;22.256;2022-09-09T00:39:00;10.13;;;4.97;;
57225;SDS011;43082;43.568;22.256;2022-09-09T00:52:03;8.18;;;4.50;;
57225;SDS011;43082;43.568;22.256;2022-09-09T00:57:36;10.95;;;5.50;;
57225;SDS011;43082;43.568;22.256;2022-09-09T01:02:49;9.57;;;5.50;;
57225;SDS011;43082;43.568;22.256;2022-09-09T01:05:37;9.05;;;4.63;;
57225;SDS011;43082;43.568;22.256;2022-09-09T01:11:43;10.10;;;4.60;;
57225;SDS011;43082;43.568;22.256;2022-09-09T01:16:43;10.35;;;4.68;;
57225;SDS011;43082;43.568;22.256;2022-09-09T01:19:09;9.20;;;5.00;;
57225;SDS011;43082;43.568;22.256;2022-09-09T01:21:51;10.23;;;5.80;;
57225;SDS011;43082;43.568;22.256;2022-09-09T01:27:06;6.95;;;4.60;;
57225;SDS011;43082;43.568;22.256;2022-09-09T01:29:31;9.38;;;4.35;;
57225;SDS011;43082;43.568;22.256;2022-09-09T01:34:25;7.63;;;4.63;;
57225;SDS011;43082;43.568;22.256;2022-09-09T01:36:57;9.30;;;4.63;;
57225;SDS011;43082;43.568;22.256;2022-09-09T01:39:26;9.70;;;4.80;;
57225;SDS011;43082;43.568;22.256;2022-09-09T01:41:52;8.65;;;4.50;;
57225;SDS011;43082;43.568;22.256;2022-09-09T01:44:18;8.88;;;5.25;;
57225;SDS011;43082;43.568;22.256;2022-09-09T01:46:44;8.27;;;5.03;;
57225;SDS011;43082;43.568;22.256;2022-09-09T01:49:09;10.07;;;4.90;;
57225;SDS011;43082;43.568;22.256;2022-09-09T01:51:36;8.90;;;4.85;;
57225;SDS011;43082;43.568;22.256;2022-09-09T01:54:03;9.15;;;4.68;;
57225;SDS011;43082;43.568;22.256;2022-09-09T01:56:33;8.85;;;4.70;;
57225;SDS011;43082;43.568;22.256;2022-09-09T01:59:12;8.68;;;5.10;;
57225;SDS011;43082;43.568;22.256;2022-09-09T02:04:36;9.88;;;4.72;;
57225;SDS011;43082;43.568;22.256;2022-09-09T02:07:51;9.98;;;4.18;;
57225;SDS011;43082;43.568;22.256;2022-09-09T02:13:15;8.93;;;4.88;;
57225;SDS011;43082;43.568;22.256;2022-09-09T02:15:45;8.32;;;4.88;;
57225;SDS011;43082;43.568;22.256;2022-09-09T02:18:15;9.63;;;5.00;;
57225;SDS011;43082;43.568;22.256;2022-09-09T02:20:47;10.40;;;5.00;;
57225;SDS011;43082;43.568;22.256;2022-09-09T02:23:13;10.63;;;5.03;;
57225;SDS011;43082;43.568;22.256;2022-09-09T02:25:39;8.38;;;4.57;;
57225;SDS011;43082;43.568;22.256;2022-09-09T02:28:06;11.68;;;4.63;;
57225;SDS011;43082;43.568;22.256;2022-09-09T02:30:33;9.63;;;5.65;;
57225;SDS011;43082;43.568;22.256;2022-09-09T02:33:00;8.20;;;4.50;;
57225;SDS011;43082;43.568;22.256;2022-09-09T02:35:27;9.63;;;4.60;;
57225;SDS011;43082;43.568;22.256;2022-09-09T02:37:53;12.63;;;4.63;;
57225;SDS011;43082;43.568;22.256;2022-09-09T02:40:20;7.88;;;4.90;;
57225;SDS011;43082;43.568;22.256;2022-09-09T02:42:47;9.45;;;4.30;;
57225;SDS011;43082;43.568;22.256;2022-09-09T02:45:14;8.43;;;4.53;;
57225;SDS011;43082;43.568;22.256;2022-09-09T02:47:45;8.00;;;4.65;;
57225;SDS011;43082;43.568;22.256;2022-09-09T02:50:17;8.00;;;4.60;;
57225;SDS011;43082;43.568;22.256;2022-09-09T02:55:44;11.00;;;6.13;;
57225;SDS011;43082;43.568;22.256;2022-09-09T02:58:14;8.95;;;4.82;;
57225;SDS011;43082;43.568;22.256;2022-09-09T03:00:49;7.53;;;4.65;;
57225;SDS011;43082;43.568;22.256;2022-09-09T03:03:16;8.70;;;4.85;;
57225;SDS011;43082;43.568;22.256;2022-09-09T03:05:42;10.60;;;4.43;;
57225;SDS011;43082;43.568;22.256;2022-09-09T03:08:08;7.60;;;4.60;;
57225;SDS011;43082;43.568;22.256;2022-09-09T03:10:34;8.23;;;4.57;;
57225;SDS011;43082;43.568;22.256;2022-09-09T03:13:00;14.93;;;6.72;;
57225;SDS011;43082;43.568;22.256;2022-09-09T03:15:26;11.50;;;5.00;;
57225;SDS011;43082;43.568;22.256;2022-09-09T03:17:55;9.00;;;4.75;;
57225;SDS011;43082;43.568;22.256;2022-09-09T03:20:22;8.20;;;4.90;;
57225;SDS011;43082;43.568;22.256;2022-09-09T03:22:48;8.98;;;4.60;;
57225;SDS011;43082;43.568;22.256;2022-09-09T03:25:13;8.02;;;5.05;;
57225;SDS011;43082;43.568;22.256;2022-09-09T03:27:39;12.55;;;5.65;;
57225;SDS011;43082;43.568;22.256;2022-09-09T03:30:05;18.77;;;7.78;;
57225;SDS011;43082;43.568;22.256;2022-09-09T03:32:31;8.75;;;4.68;;
57225;SDS011;43082;43.568;22.256;2022-09-09T03:34:57;12.88;;;6.25;;
57225;SDS011;43082;43.568;22.256;2022-09-09T03:37:22;9.57;;;4.90;;
57225;SDS011;43082;43.568;22.256;2022-09-09T03:39:48;9.60;;;5.13;;
57225;SDS011;43082;43.568;22.256;2022-09-09T03:42:13;9.95;;;5.72;;
57225;SDS011;43082;43.568;22.256;2022-09-09T03:44:39;9.57;;;5.53;;
57225;SDS011;43082;43.568;22.256;2022-09-09T03:47:07;9.13;;;4.75;;
57225;SDS011;43082;43.568;22.256;2022-09-09T03:49:33;9.13;;;4.93;;
57225;SDS011;43082;43.568;22.256;2022-09-09T03:51:58;11.80;;;5.32;;
57225;SDS011;43082;43.568;22.256;2022-09-09T03:54:24;10.10;;;5.10;;
57225;SDS011;43082;43.568;22.256;2022-09-09T03:56:50;9.68;;;5.03;;
57225;SDS011;43082;43.568;22.256;2022-09-09T03:59:15;8.38;;;5.30;;
57225;SDS011;43082;43.568;22.256;2022-09-09T04:01:41;8.18;;;4.95;;
57225;SDS011;43082;43.568;22.256;2022-09-09T04:04:06;8.48;;;5.22;;
57225;SDS011;43082;43.568;22.256;2022-09-09T04:06:32;10.65;;;5.75;;
57225;SDS011;43082;43.568;22.256;2022-09-09T04:08:58;10.20;;;5.00;;
57225;SDS011;43082;43.568;22.256;2022-09-09T04:11:23;9.77;;;5.10;;
57225;SDS011;43082;43.568;22.256;2022-09-09T04:13:49;9.45;;;5.72;;
57225;SDS011;43082;43.568;22.256;2022-09-09T04:16:15;8.48;;;5.40;;
57225;SDS011;43082;43.568;22.256;2022-09-09T04:18:41;7.97;;;5.13;;
57225;SDS011;43082;43.568;22.256;2022-09-09T04:21:06;9.05;;;4.88;;
57225;SDS011;43082;43.568;22.256;2022-09-09T04:23:33;10.18;;;5.07;;
57225;SDS011;43082;43.568;22.256;2022-09-09T04:26:00;10.15;;;5.40;;
57225;SDS011;43082;43.568;22.256;2022-09-09T04:28:30;10.93;;;4.82;;
57225;SDS011;43082;43.568;22.256;2022-09-09T04:30:56;9.10;;;5.20;;
57225;SDS011;43082;43.568;22.256;2022-09-09T04:33:23;10.15;;;5.03;;
57225;SDS011;43082;43.568;22.256;2022-09-09T04:35:51;16.20;;;5.00;;
57225;SDS011;43082;43.568;22.256;2022-09-09T04:38:19;10.25;;;5.22;;
57225;SDS011;43082;43.568;22.256;2022-09-09T04:40:47;13.15;;;5.38;;
57225;SDS011;43082;43.568;22.256;2022-09-09T04:43:13;11.27;;;5.60;;
57225;SDS011;43082;43.568;22.256;2022-09-09T04:45:42;11.10;;;5.63;;
57225;SDS011;43082;43.568;22.256;2022-09-09T04:48:08;9.75;;;5.68;;
57225;SDS011;43082;43.568;22.256;2022-09-09T04:50:34;10.50;;;5.40;;
57225;SDS011;43082;43.568;22.256;2022-09-09T04:53:04;12.75;;;5.40;;
57225;SDS011;43082;43.568;22.256;2022-09-09T04:55:30;10.18;;;5.40;;
57225;SDS011;43082;43.568;22.256;2022-09-09T04:57:56;14.38;;;5.70;;
57225;SDS011;43082;43.568;22.256;2022-09-09T05:00:22;10.45;;;5.85;;
57225;SDS011;43082;43.568;22.256;2022-09-09T05:02:48;11.77;;;7.88;;
57225;SDS011;43082;43.568;22.256;2022-09-09T05:05:14;11.13;;;5.55;;
57225;SDS011;43082;43.568;22.256;2022-09-09T05:07:40;10.45;;;6.00;;
57225;SDS011;43082;43.568;22.256;2022-09-09T05:10:06;9.43;;;5.65;;
57225;SDS011;43082;43.568;22.256;2022-09-09T05:12:32;10.75;;;5.78;;
57225;SDS011;43082;43.568;22.256;2022-09-09T05:14:58;12.70;;;5.70;;
57225;SDS011;43082;43.568;22.256;2022-09-09T05:17:23;9.57;;;5.82;;
57225;SDS011;43082;43.568;22.256;2022-09-09T05:19:49;12.38;;;6.15;;
57225;SDS011;43082;43.568;22.256;2022-09-09T05:22:20;16.17;;;6.80;;
57225;SDS011;43082;43.568;22.256;2022-09-09T05:24:48;22.00;;;12.02;;
57225;SDS011;43082;43.568;22.256;2022-09-09T05:27:16;18.17;;;11.18;;
57225;SDS011;43082;43.568;22.256;2022-09-09T05:29:45;11.40;;;7.20;;
57225;SDS011;43082;43.568;22.256;2022-09-09T05:32:11;16.52;;;9.80;;
57225;SDS011;43082;43.568;22.256;2022-09-09T05:34:36;21.05;;;11.80;;
57225;SDS011;43082;43.568;22.256;2022-09-09T05:37:05;17.98;;;9.38;;
57225;SDS011;43082;43.568;22.256;2022-09-09T05:39:31;15.43;;;8.32;;
57225;SDS011;43082;43.568;22.256;2022-09-09T05:41:57;15.20;;;8.75;;
57225;SDS011;43082;43.568;22.256;2022-09-09T05:44:23;17.15;;;8.13;;
57225;SDS011;43082;43.568;22.256;2022-09-09T05:46:52;19.92;;;11.20;;
57225;SDS011;43082;43.568;22.256;2022-09-09T05:49:19;17.83;;;9.32;;
57225;SDS011;43082;43.568;22.256;2022-09-09T05:51:44;11.63;;;6.95;;
57225;SDS011;43082;43.568;22.256;2022-09-09T05:54:10;15.30;;;7.22;;
57225;SDS011;43082;43.568;22.256;2022-09-09T05:56:35;19.10;;;9.43;;
57225;SDS011;43082;43.568;22.256;2022-09-09T05:59:01;32.63;;;13.20;;
57225;SDS011;43082;43.568;22.256;2022-09-09T06:01:28;17.80;;;11.50;;
57225;SDS011;43082;43.568;22.256;2022-09-09T06:03:55;43.58;;;18.88;;
57225;SDS011;43082;43.568;22.256;2022-09-09T06:06:21;17.83;;;9.27;;
57225;SDS011;43082;43.568;22.256;2022-09-09T06:08:51;19.00;;;9.15;;
57225;SDS011;43082;43.568;22.256;2022-09-09T06:11:19;13.65;;;7.55;;
57225;SDS011;43082;43.568;22.256;2022-09-09T06:13:51;15.48;;;9.65;;
57225;SDS011;43082;43.568;22.256;2022-09-09T06:16:19;23.40;;;12.60;;
57225;SDS011;43082;43.568;22.256;2022-09-09T06:18:48;42.30;;;18.77;;
57225;SDS011;43082;43.568;22.256;2022-09-09T06:23:42;48.42;;;26.80;;
57225;SDS011;43082;43.568;22.256;2022-09-09T06:29:10;20.33;;;11.10;;
57225;SDS011;43082;43.568;22.256;2022-09-09T06:31:36;18.92;;;12.65;;
57225;SDS011;43082;43.568;22.256;2022-09-09T06:34:04;16.42;;;10.80;;
57225;SDS011;43082;43.568;22.256;2022-09-09T06:36:32;25.98;;;14.73;;
57225;SDS011;43082;43.568;22.256;2022-09-09T06:38:58;23.48;;;15.80;;
57225;SDS011;43082;43.568;22.256;2022-09-09T06:41:25;13.98;;;10.13;;
57225;SDS011;43082;43.568;22.256;2022-09-09T06:43:52;23.60;;;15.57;;
57225;SDS011;43082;43.568;22.256;2022-09-09T06:46:18;16.23;;;9.90;;
57225;SDS011;43082;43.568;22.256;2022-09-09T06:48:46;18.63;;;10.05;;
57225;SDS011;43082;43.568;22.256;2022-09-09T06:51:16;13.10;;;7.72;;
57225;SDS011;43082;43.568;22.256;2022-09-09T06:53:43;14.10;;;10.20;;
57225;SDS011;43082;43.568;22.256;2022-09-09T06:58:41;17.48;;;9.90;;
57225;SDS011;43082;43.568;22.256;2022-09-09T07:01:09;21.00;;;10.32;;
57225;SDS011;43082;43.568;22.256;2022-09-09T07:03:35;21.88;;;12.63;;
57225;SDS011;43082;43.568;22.256;2022-09-09T07:06:01;14.88;;;9.40;;
57225;SDS011;43082;43.568;22.256;2022-09-09T07:08:26;14.68;;;7.78;;
57225;SDS011;43082;43.568;22.256;2022-09-09T07:10:53;20.75;;;11.10;;
57225;SDS011;43082;43.568;22.256;2022-09-09T07:13:20;17.23;;;10.48;;
57225;SDS011;43082;43.568;22.256;2022-09-09T07:15:50;18.90;;;11.80;;
57225;SDS011;43082;43.568;22.256;2022-09-09T07:18:16;22.90;;;14.40;;
57225;SDS011;43082;43.568;22.256;2022-09-09T07:20:41;18.35;;;12.48;;
57225;SDS011;43082;43.568;22.256;2022-09-09T07:23:07;25.95;;;12.93;;
57225;SDS011;43082;43.568;22.256;2022-09-09T07:25:33;18.52;;;9.98;;
57225;SDS011;43082;43.568;22.256;2022-09-09T07:27:59;26.25;;;10.68;;
57225;SDS011;43082;43.568;22.256;2022-09-09T07:30:24;16.67;;;8.00;;
57225;SDS011;43082;43.568;22.256;2022-09-09T07:32:53;17.33;;;7.93;;
57225;SDS011;43082;43.568;22.256;2022-09-09T07:35:18;15.00;;;8.90;;
57225;SDS011;43082;43.568;22.256;2022-09-09T07:37:45;17.23;;;10.57;;
57225;SDS011;43082;43.568;22.256;2022-09-09T07:40:10;18.30;;;9.55;;
57225;SDS011;43082;43.568;22.256;2022-09-09T07:42:36;15.82;;;9.43;;
57225;SDS011;43082;43.568;22.256;2022-09-09T07:45:02;15.65;;;10.38;;
57225;SDS011;43082;43.568;22.256;2022-09-09T07:47:29;18.10;;;11.23;;
57225;SDS011;43082;43.568;22.256;2022-09-09T07:49:54;14.50;;;9.05;;
57225;SDS011;43082;43.568;22.256;2022-09-09T07:52:21;14.77;;;7.85;;
57225;SDS011;43082;43.568;22.256;2022-09-09T07:54:46;13.65;;;7.90;;
57225;SDS011;43082;43.568;22.256;2022-09-09T07:57:12;16.48;;;8.07;;
57225;SDS011;43082;43.568;22.256;2022-09-09T07:59:37;13.13;;;8.32;;
57225;SDS011;43082;43.568;22.256;2022-09-09T08:02:03;13.23;;;7.15;;
57225;SDS011;43082;43.568;22.256;2022-09-09T08:04:28;17.60;;;10.23;;
57225;SDS011;43082;43.568;22.256;2022-09-09T08:06:58;13.65;;;6.30;;
57225;SDS011;43082;43.568;22.256;2022-09-09T08:09:25;13.70;;;6.97;;
57225;SDS011;43082;43.568;22.256;2022-09-09T08:11:53;14.98;;;8.25;;
57225;SDS011;43082;43.568;22.256;2022-09-09T08:14:21;13.02;;;9.10;;
57225;SDS011;43082;43.568;22.256;2022-09-09T08:16:48;13.05;;;7.78;;
57225;SDS011;43082;43.568;22.256;2022-09-09T08:19:14;17.25;;;8.82;;
57225;SDS011;43082;43.568;22.256;2022-09-09T08:21:40;16.17;;;7.20;;
57225;SDS011;43082;43.568;22.256;2022-09-09T08:24:07;14.15;;;9.18;;
57225;SDS011;43082;43.568;22.256;2022-09-09T08:26:34;12.45;;;8.32;;
57225;SDS011;43082;43.568;22.256;2022-09-09T08:29:01;13.55;;;7.30;;
57225;SDS011;43082;43.568;22.256;2022-09-09T08:33:54;11.18;;;5.32;;
57225;SDS011;43082;43.568;22.256;2022-09-09T08:36:21;9.75;;;5.80;;
57225;SDS011;43082;43.568;22.256;2022-09-09T08:38:48;11.93;;;6.88;;
57225;SDS011;43082;43.568;22.256;2022-09-09T08:50:25;10.13;;;5.47;;
57225;SDS011;43082;43.568;22.256;2022-09-09T08:55:47;14.20;;;5.88;;
57225;SDS011;43082;43.568;22.256;2022-09-09T08:58:32;10.52;;;6.97;;
57225;SDS011;43082;43.568;22.256;2022-09-09T09:12:25;10.43;;;5.95;;
57225;SDS011;43082;43.568;22.256;2022-09-09T09:14:53;13.00;;;7.53;;
57225;SDS011;43082;43.568;22.256;2022-09-09T09:17:21;13.13;;;6.35;;
57225;SDS011;43082;43.568;22.256;2022-09-09T09:19:49;9.82;;;5.68;;
57225;SDS011;43082;43.568;22.256;2022-09-09T09:24:51;14.20;;;6.28;;
57225;SDS011;43082;43.568;22.256;2022-09-09T09:28:10;11.23;;;6.60;;
57225;SDS011;43082;43.568;22.256;2022-09-09T09:33:47;10.15;;;6.43;;
57225;SDS011;43082;43.568;22.256;2022-09-09T09:36:00;11.35;;;5.45;;
57225;SDS011;43082;43.568;22.256;2022-09-09T09:38:27;9.65;;;4.97;;
57225;SDS011;43082;43.568;22.256;2022-09-09T09:40:54;8.73;;;5.18;;
57225;SDS011;43082;43.568;22.256;2022-09-09T09:43:36;12.00;;;6.70;;
57225;SDS011;43082;43.568;22.256;2022-09-09T09:46:16;18.40;;;9.95;;
57225;SDS011;43082;43.568;22.256;2022-09-09T09:48:44;11.10;;;5.28;;
57225;SDS011;43082;43.568;22.256;2022-09-09T09:51:12;8.75;;;5.30;;
57225;SDS011;43082;43.568;22.256;2022-09-09T09:53:40;13.10;;;6.60;;
57225;SDS011;43082;43.568;22.256;2022-09-09T09:56:10;14.35;;;5.60;;
57225;SDS011;43082;43.568;22.256;2022-09-09T10:01:20;9.98;;;6.13;;
57225;SDS011;43082;43.568;22.256;2022-09-09T10:04:02;10.10;;;6.18;;
57225;SDS011;43082;43.568;22.256;2022-09-09T10:06:49;9.88;;;5.47;;
57225;SDS011;43082;43.568;22.256;2022-09-09T10:17:22;9.73;;;5.03;;
57225;SDS011;43082;43.568;22.256;2022-09-09T10:23:13;9.30;;;5.22;;
57225;SDS011;43082;43.568;22.256;2022-09-09T10:25:50;14.25;;;5.47;;
57225;SDS011;43082;43.568;22.256;2022-09-09T10:28:36;11.52;;;5.15;;
57225;SDS011;43082;43.568;22.256;2022-09-09T10:36:47;9.88;;;5.35;;
57225;SDS011;43082;43.568;22.256;2022-09-09T10:42:14;9.00;;;4.97;;
57225;SDS011;43082;43.568;22.256;2022-09-09T10:47:49;10.43;;;5.00;;
57225;SDS011;43082;43.568;22.256;2022-09-09T10:53:17;10.05;;;5.10;;
57225;SDS011;43082;43.568;22.256;2022-09-09T10:55:45;12.38;;;4.97;;
57225;SDS011;43082;43.568;22.256;2022-09-09T10:58:18;11.27;;;5.32;;
57225;SDS011;43082;43.568;22.256;2022-09-09T11:00:56;12.30;;;5.80;;
57225;SDS011;43082;43.568;22.256;2022-09-09T11:03:25;9.80;;;4.97;;
57225;SDS011;43082;43.568;22.256;2022-09-09T11:05:53;26.70;;;14.45;;
57225;SDS011;43082;43.568;22.256;2022-09-09T11:08:26;11.18;;;5.80;;
57225;SDS011;43082;43.568;22.256;2022-09-09T11:13:34;13.25;;;7.90;;
57225;SDS011;43082;43.568;22.256;2022-09-09T11:21:42;13.55;;;6.20;;
57225;SDS011;43082;43.568;22.256;2022-09-09T11:24:15;12.25;;;6.13;;
57225;SDS011;43082;43.568;22.256;2022-09-09T11:27:01;8.40;;;5.10;;
57225;SDS011;43082;43.568;22.256;2022-09-09T11:32:34;8.85;;;4.90;;
57225;SDS011;43082;43.568;22.256;2022-09-09T11:40:25;9.82;;;4.70;;
57225;SDS011;43082;43.568;22.256;2022-09-09T11:43:05;10.43;;;5.15;;
57225;SDS011;43082;43.568;22.256;2022-09-09T11:45:38;9.05;;;4.63;;
57225;SDS011;43082;43.568;22.256;2022-09-09T11:48:04;14.18;;;4.97;;
57225;SDS011;43082;43.568;22.256;2022-09-09T11:50:36;11.15;;;4.10;;
57225;SDS011;43082;43.568;22.256;2022-09-09T11:53:16;11.15;;;4.15;;
57225;SDS011;43082;43.568;22.256;2022-09-09T11:55:45;9.50;;;3.95;;
57225;SDS011;43082;43.568;22.256;2022-09-09T12:00:49;10.25;;;4.40;;
57225;SDS011;43082;43.568;22.256;2022-09-09T12:06:17;9.90;;;4.13;;
57225;SDS011;43082;43.568;22.256;2022-09-09T12:08:46;11.30;;;4.40;;
57225;SDS011;43082;43.568;22.256;2022-09-09T12:11:23;12.45;;;5.90;;
57225;SDS011;43082;43.568;22.256;2022-09-09T12:13:59;16.58;;;5.80;;
57225;SDS011;43082;43.568;22.256;2022-09-09T12:16:37;10.98;;;5.15;;
57225;SDS011;43082;43.568;22.256;2022-09-09T12:19:24;10.02;;;4.32;;
57225;SDS011;43082;43.568;22.256;2022-09-09T12:24:48;9.25;;;4.20;;
57225;SDS011;43082;43.568;22.256;2022-09-09T12:27:26;10.18;;;3.78;;
57225;SDS011;43082;43.568;22.256;2022-09-09T12:32:27;10.95;;;4.25;;
57225;SDS011;43082;43.568;22.256;2022-09-09T12:40:18;12.45;;;4.45;;
57225;SDS011;43082;43.568;22.256;2022-09-09T12:42:46;11.20;;;4.22;;
57225;SDS011;43082;43.568;22.256;2022-09-09T12:45:16;14.43;;;5.80;;
57225;SDS011;43082;43.568;22.256;2022-09-09T12:47:56;10.63;;;4.38;;
57225;SDS011;43082;43.568;22.256;2022-09-09T12:50:27;9.00;;;5.00;;
57225;SDS011;43082;43.568;22.256;2022-09-09T12:52:55;10.07;;;4.22;;
57225;SDS011;43082;43.568;22.256;2022-09-09T12:55:34;11.73;;;4.28;;
57225;SDS011;43082;43.568;22.256;2022-09-09T12:58:01;11.27;;;4.25;;
57225;SDS011;43082;43.568;22.256;2022-09-09T13:00:30;12.88;;;4.70;;
57225;SDS011;43082;43.568;22.256;2022-09-09T13:02:57;9.80;;;4.28;;
57225;SDS011;43082;43.568;22.256;2022-09-09T13:08:06;16.35;;;4.10;;
57225;SDS011;43082;43.568;22.256;2022-09-09T13:10:46;14.75;;;4.50;;
57225;SDS011;43082;43.568;22.256;2022-09-09T13:13:15;11.60;;;4.13;;
57225;SDS011;43082;43.568;22.256;2022-09-09T13:15:47;10.15;;;3.80;;
57225;SDS011;43082;43.568;22.256;2022-09-09T13:18:14;11.90;;;4.03;;
57225;SDS011;43082;43.568;22.256;2022-09-09T13:20:45;11.75;;;4.32;;
57225;SDS011;43082;43.568;22.256;2022-09-09T13:23:11;10.70;;;4.15;;
57225;SDS011;43082;43.568;22.256;2022-09-09T13:25:37;11.27;;;4.03;;
57225;SDS011;43082;43.568;22.256;2022-09-09T13:28:04;13.18;;;4.90;;
57225;SDS011;43082;43.568;22.256;2022-09-09T13:30:34;13.07;;;3.55;;
57225;SDS011;43082;43.568;22.256;2022-09-09T13:35:36;13.23;;;3.90;;
57225;SDS011;43082;43.568;22.256;2022-09-09T13:38:18;15.38;;;4.20;;
57225;SDS011;43082;43.568;22.256;2022-09-09T13:40:54;13.77;;;3.58;;
57225;SDS011;43082;43.568;22.256;2022-09-09T13:43:22;10.02;;;3.45;;
57225;SDS011;43082;43.568;22.256;2022-09-09T13:45:56;14.05;;;3.90;;
57225;SDS011;43082;43.568;22.256;2022-09-09T13:48:23;12.60;;;4.00;;
57225;SDS011;43082;43.568;22.256;2022-09-09T13:50:56;12.07;;;3.80;;
57225;SDS011;43082;43.568;22.256;2022-09-09T13:53:24;10.68;;;3.65;;
57225;SDS011;43082;43.568;22.256;2022-09-09T13:55:50;13.90;;;3.72;;
57225;SDS011;43082;43.568;22.256;2022-09-09T13:58:16;13.82;;;3.53;;
57225;SDS011;43082;43.568;22.256;2022-09-09T14:00:44;12.27;;;4.40;;
57225;SDS011;43082;43.568;22.256;2022-09-09T14:03:10;11.30;;;3.63;;
57225;SDS011;43082;43.568;22.256;2022-09-09T14:05:36;12.50;;;3.95;;
57225;SDS011;43082;43.568;22.256;2022-09-09T14:08:05;11.35;;;4.75;;
57225;SDS011;43082;43.568;22.256;2022-09-09T14:10:32;10.80;;;3.20;;
57225;SDS011;43082;43.568;22.256;2022-09-09T14:13:00;10.57;;;3.35;;
57225;SDS011;43082;43.568;22.256;2022-09-09T14:15:26;10.48;;;3.50;;
57225;SDS011;43082;43.568;22.256;2022-09-09T14:17:52;8.68;;;3.22;;
57225;SDS011;43082;43.568;22.256;2022-09-09T14:20:17;12.23;;;4.22;;
57225;SDS011;43082;43.568;22.256;2022-09-09T14:22:44;7.40;;;3.72;;
57225;SDS011;43082;43.568;22.256;2022-09-09T14:25:10;12.60;;;4.13;;
57225;SDS011;43082;43.568;22.256;2022-09-09T14:27:36;10.20;;;5.30;;
57225;SDS011;43082;43.568;22.256;2022-09-09T14:30:03;11.32;;;4.95;;
57225;SDS011;43082;43.568;22.256;2022-09-09T14:32:29;9.70;;;4.25;;
57225;SDS011;43082;43.568;22.256;2022-09-09T14:34:54;11.88;;;4.03;;
57225;SDS011;43082;43.568;22.256;2022-09-09T14:37:20;9.07;;;3.45;;
57225;SDS011;43082;43.568;22.256;2022-09-09T14:39:46;9.70;;;3.78;;
57225;SDS011;43082;43.568;22.256;2022-09-09T14:42:12;9.98;;;3.53;;
57225;SDS011;43082;43.568;22.256;2022-09-09T14:44:38;10.52;;;3.97;;
57225;SDS011;43082;43.568;22.256;2022-09-09T14:47:07;10.48;;;3.50;;
57225;SDS011;43082;43.568;22.256;2022-09-09T14:49:33;8.57;;;3.90;;
57225;SDS011;43082;43.568;22.256;2022-09-09T14:51:59;9.25;;;3.60;;
57225;SDS011;43082;43.568;22.256;2022-09-09T14:54:25;8.13;;;3.38;;
57225;SDS011;43082;43.568;22.256;2022-09-09T14:56:51;15.02;;;5.93;;
57225;SDS011;43082;43.568;22.256;2022-09-09T14:59:16;8.68;;;3.10;;
57225;SDS011;43082;43.568;22.256;2022-09-09T15:01:41;13.48;;;4.45;;
57225;SDS011;43082;43.568;22.256;2022-09-09T15:04:07;11.40;;;4.10;;
57225;SDS011;43082;43.568;22.256;2022-09-09T15:06:34;11.38;;;4.18;;
57225;SDS011;43082;43.568;22.256;2022-09-09T15:09:03;9.60;;;3.95;;
57225;SDS011;43082;43.568;22.256;2022-09-09T15:11:30;9.38;;;3.50;;
57225;SDS011;43082;43.568;22.256;2022-09-09T15:14:02;8.68;;;3.17;;
57225;SDS011;43082;43.568;22.256;2022-09-09T15:16:28;8.82;;;3.75;;
57225;SDS011;43082;43.568;22.256;2022-09-09T15:18:55;12.63;;;6.47;;
57225;SDS011;43082;43.568;22.256;2022-09-09T15:21:22;11.48;;;4.43;;
57225;SDS011;43082;43.568;22.256;2022-09-09T15:23:49;7.30;;;3.28;;
57225;SDS011;43082;43.568;22.256;2022-09-09T15:26:16;7.38;;;3.40;;
57225;SDS011;43082;43.568;22.256;2022-09-09T15:28:42;7.70;;;3.88;;
57225;SDS011;43082;43.568;22.256;2022-09-09T15:31:42;9.25;;;3.53;;
57225;SDS011;43082;43.568;22.256;2022-09-09T15:34:01;10.18;;;2.90;;
57225;SDS011;43082;43.568;22.256;2022-09-09T15:36:29;8.00;;;2.95;;
57225;SDS011;43082;43.568;22.256;2022-09-09T15:39:08;10.65;;;3.45;;
57225;SDS011;43082;43.568;22.256;2022-09-09T15:41:37;10.50;;;3.17;;
57225;SDS011;43082;43.568;22.256;2022-09-09T15:44:03;9.15;;;3.10;;
57225;SDS011;43082;43.568;22.256;2022-09-09T15:46:30;7.68;;;2.90;;
57225;SDS011;43082;43.568;22.256;2022-09-09T15:51:34;10.38;;;3.97;;
57225;SDS011;43082;43.568;22.256;2022-09-09T15:54:00;8.90;;;3.60;;
57225;SDS011;43082;43.568;22.256;2022-09-09T15:56:26;9.30;;;3.55;;
57225;SDS011;43082;43.568;22.256;2022-09-09T15:58:52;13.13;;;3.72;;
57225;SDS011;43082;43.568;22.256;2022-09-09T16:01:18;7.10;;;3.00;;
57225;SDS011;43082;43.568;22.256;2022-09-09T16:03:44;7.65;;;3.20;;
57225;SDS011;43082;43.568;22.256;2022-09-09T16:06:12;9.40;;;3.50;;
57225;SDS011;43082;43.568;22.256;2022-09-09T16:08:39;9.38;;;3.22;;
57225;SDS011;43082;43.568;22.256;2022-09-09T16:13:36;13.68;;;5.45;;
57225;SDS011;43082;43.568;22.256;2022-09-09T16:16:02;8.88;;;4.30;;
57225;SDS011;43082;43.568;22.256;2022-09-09T16:21:08;9.88;;;4.53;;
57225;SDS011;43082;43.568;22.256;2022-09-09T16:23:39;13.50;;;4.70;;
57225;SDS011;43082;43.568;22.256;2022-09-09T16:26:05;8.68;;;3.60;;
57225;SDS011;43082;43.568;22.256;2022-09-09T16:28:31;12.10;;;4.63;;
57225;SDS011;43082;43.568;22.256;2022-09-09T16:30:56;12.65;;;7.28;;
57225;SDS011;43082;43.568;22.256;2022-09-09T16:33:23;14.02;;;5.10;;
57225;SDS011;43082;43.568;22.256;2022-09-09T16:35:49;11.07;;;3.95;;
57225;SDS011;43082;43.568;22.256;2022-09-09T16:38:14;10.55;;;4.90;;
57225;SDS011;43082;43.568;22.256;2022-09-09T16:40:40;10.18;;;5.20;;
57225;SDS011;43082;43.568;22.256;2022-09-09T16:43:08;13.43;;;5.70;;
57225;SDS011;43082;43.568;22.256;2022-09-09T16:45:43;12.85;;;5.03;;
57225;SDS011;43082;43.568;22.256;2022-09-09T16:48:10;11.05;;;3.60;;
57225;SDS011;43082;43.568;22.256;2022-09-09T16:50:36;9.65;;;3.60;;
57225;SDS011;43082;43.568;22.256;2022-09-09T16:53:02;10.30;;;3.45;;
57225;SDS011;43082;43.568;22.256;2022-09-09T16:55:31;13.25;;;7.65;;
57225;SDS011;43082;43.568;22.256;2022-09-09T16:57:57;22.50;;;8.93;;
57225;SDS011;43082;43.568;22.256;2022-09-09T17:00:22;10.52;;;5.45;;
57225;SDS011;43082;43.568;22.256;2022-09-09T17:02:48;14.50;;;8.20;;
57225;SDS011;43082;43.568;22.256;2022-09-09T17:05:14;14.77;;;8.63;;
57225;SDS011;43082;43.568;22.256;2022-09-09T17:07:39;20.52;;;11.32;;
57225;SDS011;43082;43.568;22.256;2022-09-09T17:10:05;12.43;;;7.10;;
57225;SDS011;43082;43.568;22.256;2022-09-09T17:12:31;12.15;;;5.70;;
57225;SDS011;43082;43.568;22.256;2022-09-09T17:14:57;13.35;;;5.82;;